Terminal Aerodrome Forecast
Issued by NWS

Home | Current Version | Previous Version | Text Only | Print | Product List | Glossary Off
Versions: 1 2 3 4 5 6 7 8 9 10 11 12 13 14 15 16 17 18 19 20

000
FTUS41 KCLE 171400 AAA
TAFFDY
TAF AMD
KFDY 171401Z 1714/1812 21014G20KT P6SM FEW015 BKN060
     FM171600 23016G25KT P6SM BKN045
     FM180000 27012KT P6SM VCSH OVC035
     FM180400 28012KT P6SM VCSH OVC025=

USA.gov is the U.S. government's official web portal to all federal, state and local government web resources and services.